Time;durP1;ratioP1;P1;durP2;ratioP2;P2;SDS_P1;SDS_P2;PMS_P1;PMS_P2;Temp;Humidity;BMP_temperature;BMP_pressure;BME280_temperature;BME280_humidity;BME280_pressure;Samples;Min_cycle;Max_cycle;Signal;HPM_P1;HPM_P2
2023/06/12 00:00:56;;;;;;;6.40;5.47;;;;;;;;;;5062510;28;20888;-64
2023/06/12 00:03:25;;;;;;;6.18;5.40;;;;;;;;;;5065428;28;20469;-64
2023/06/12 00:05:52;;;;;;;6.60;5.38;;;;;;;;;;5065028;28;20425;-64
2023/06/12 00:08:20;;;;;;;6.03;5.43;;;;;;;;;;5065826;28;20416;-63
2023/06/12 00:10:48;;;;;;;8.60;6.23;;;;;;;;;;5064299;28;20582;-63
2023/06/12 00:13:15;;;;;;;8.25;5.30;;;;;;;;;;5062497;28;20417;-63
2023/06/12 00:15:42;;;;;;;7.03;5.43;;;;;;;;;;5065986;28;20504;-63
2023/06/12 00:18:10;;;;;;;6.20;5.28;;;;;;;;;;5062259;28;20413;-63
2023/06/12 00:20:37;;;;;;;6.32;5.22;;;;;;;;;;5065749;28;20934;-63
2023/06/12 00:23:04;;;;;;;6.18;5.57;;;;;;;;;;5062712;28;20471;-63
2023/06/12 00:25:33;;;;;;;8.00;5.47;;;;;;;;;;5053646;28;20459;-63
2023/06/12 00:28:00;;;;;;;6.82;5.63;;;;;;;;;;5054594;28;20801;-63
2023/06/12 00:30:27;;;;;;;8.10;5.20;;;;;;;;;;5064825;28;20445;-64
2023/06/12 00:32:54;;;;;;;6.03;5.40;;;;;;;;;;5063965;28;20421;-63
2023/06/12 00:35:22;;;;;;;7.45;5.63;;;;;;;;;;5063862;28;20425;-63
2023/06/12 00:37:50;;;;;;;6.13;5.50;;;;;;;;;;5067142;28;20509;-63
2023/06/12 00:40:17;;;;;;;6.90;6.10;;;;;;;;;;5067604;28;20761;-63
2023/06/12 00:42:46;;;;;;;5.95;5.35;;;;;;;;;;5066916;28;20415;-63
2023/06/12 00:45:14;;;;;;;7.47;5.80;;;;;;;;;;5071199;28;20432;-63
2023/06/12 00:47:42;;;;;;;6.72;5.70;;;;;;;;;;5068863;28;20421;-63
2023/06/12 00:50:11;;;;;;;6.93;5.80;;;;;;;;;;5064854;28;20812;-63
2023/06/12 00:52:39;;;;;;;6.43;5.50;;;;;;;;;;5063671;28;20420;-63
2023/06/12 00:55:07;;;;;;;7.22;5.88;;;;;;;;;;5065528;28;20427;-63
2023/06/12 00:57:34;;;;;;;7.75;5.93;;;;;;;;;;5061519;28;20952;-63
2023/06/12 01:00:06;;;;;;;7.30;5.80;;;;;;;;;;5065018;28;20451;-63
2023/06/12 01:02:33;;;;;;;7.53;5.47;;;;;;;;;;5067590;28;20961;-64
2023/06/12 01:05:00;;;;;;;6.75;5.43;;;;;;;;;;5062875;28;20907;-63
2023/06/12 01:07:31;;;;;;;6.82;5.60;;;;;;;;;;5068370;28;20427;-63
2023/06/12 01:10:02;;;;;;;7.03;6.05;;;;;;;;;;5063864;28;20421;-63
2023/06/12 01:12:30;;;;;;;7.93;5.80;;;;;;;;;;5061259;28;20410;-64
2023/06/12 01:14:57;;;;;;;7.07;5.28;;;;;;;;;;5063206;28;20477;-63
2023/06/12 01:17:27;;;;;;;7.05;5.88;;;;;;;;;;5063518;28;20968;-63
2023/06/12 01:19:56;;;;;;;6.38;5.57;;;;;;;;;;5060982;28;20417;-64
2023/06/12 01:22:26;;;;;;;7.68;6.10;;;;;;;;;;5064416;28;20901;-64
2023/06/12 01:24:59;;;;;;;7.15;5.97;;;;;;;;;;5052176;28;20409;-63
2023/06/12 01:27:44;;;;;;;6.50;5.60;;;;;;;;;;5052535;28;20437;-63
2023/06/12 01:30:24;;;;;;;6.65;5.60;;;;;;;;;;5048837;28;20420;-63
2023/06/12 01:32:52;;;;;;;8.82;5.57;;;;;;;;;;5064281;28;20891;-63
2023/06/12 01:35:23;;;;;;;8.68;5.60;;;;;;;;;;5060780;28;20475;-63
2023/06/12 01:37:54;;;;;;;6.32;5.70;;;;;;;;;;5068670;28;20420;-63
2023/06/12 01:40:23;;;;;;;6.65;5.47;;;;;;;;;;5065799;28;20499;-63
2023/06/12 01:42:50;;;;;;;7.30;5.53;;;;;;;;;;5061197;28;20522;-64
2023/06/12 01:45:17;;;;;;;7.75;5.55;;;;;;;;;;5060942;28;20405;-64
2023/06/12 01:47:44;;;;;;;9.03;5.77;;;;;;;;;;5061730;28;20501;-64
2023/06/12 01:50:13;;;;;;;7.53;5.57;;;;;;;;;;5062839;28;20416;-63
2023/06/12 01:52:41;;;;;;;7.72;5.80;;;;;;;;;;5062028;28;20431;-64
2023/06/12 01:55:09;;;;;;;9.68;5.78;;;;;;;;;;5063748;28;20915;-63
2023/06/12 01:57:38;;;;;;;8.43;5.50;;;;;;;;;;5062127;28;20795;-64
2023/06/12 02:00:05;;;;;;;6.57;5.50;;;;;;;;;;5062602;28;20884;-64
2023/06/12 02:02:32;;;;;;;6.65;5.95;;;;;;;;;;5060533;28;20421;-63
2023/06/12 02:04:59;;;;;;;7.22;5.50;;;;;;;;;;5060795;28;20413;-63
2023/06/12 02:07:27;;;;;;;9.73;5.90;;;;;;;;;;5067447;28;20423;-63
2023/06/12 02:09:54;;;;;;;7.38;5.30;;;;;;;;;;5062933;28;20415;-64
2023/06/12 02:12:21;;;;;;;6.50;5.60;;;;;;;;;;5062761;28;20437;-63
2023/06/12 02:14:50;;;;;;;5.90;5.30;;;;;;;;;;5060906;28;20463;-63
2023/06/12 02:17:19;;;;;;;6.33;5.20;;;;;;;;;;5063666;28;20463;-64
2023/06/12 02:19:47;;;;;;;8.83;5.57;;;;;;;;;;5060507;28;20474;-63
2023/06/12 02:22:14;;;;;;;6.97;5.57;;;;;;;;;;5063615;28;20411;-63
2023/06/12 02:24:43;;;;;;;8.65;5.60;;;;;;;;;;5059575;28;20405;-65
2023/06/12 02:27:12;;;;;;;7.15;5.40;;;;;;;;;;5063163;28;20887;-64
2023/06/12 02:29:39;;;;;;;6.77;5.63;;;;;;;;;;5059642;28;20420;-64
2023/06/12 02:32:06;;;;;;;7.80;5.22;;;;;;;;;;5061206;28;20420;-64
2023/06/12 02:34:33;;;;;;;6.82;5.80;;;;;;;;;;5062164;28;20415;-64
2023/06/12 02:37:00;;;;;;;7.20;5.55;;;;;;;;;;5061346;28;20431;-63
2023/06/12 02:39:27;;;;;;;6.63;5.30;;;;;;;;;;5066042;28;20465;-64
2023/06/12 02:41:55;;;;;;;8.63;5.50;;;;;;;;;;5066029;28;20423;-63
2023/06/12 02:44:22;;;;;;;8.30;5.47;;;;;;;;;;5060422;28;20825;-63
2023/06/12 02:46:53;;;;;;;7.60;5.80;;;;;;;;;;5062264;28;20412;-65
2023/06/12 02:49:20;;;;;;;7.65;5.28;;;;;;;;;;5061191;28;20418;-63
2023/06/12 02:51:47;;;;;;;8.20;5.72;;;;;;;;;;5059301;28;20414;-63
2023/06/12 02:54:16;;;;;;;7.80;5.70;;;;;;;;;;5061678;28;20465;-64
2023/06/12 02:56:44;;;;;;;7.57;5.68;;;;;;;;;;5063689;28;20495;-63
2023/06/12 02:59:14;;;;;;;9.00;5.63;;;;;;;;;;5062265;28;20496;-63
2023/06/12 03:01:43;;;;;;;8.18;6.03;;;;;;;;;;5059631;28;20463;-63
2023/06/12 03:04:10;;;;;;;7.57;5.85;;;;;;;;;;5050935;28;20774;-64
2023/06/12 03:06:38;;;;;;;7.72;5.90;;;;;;;;;;5058238;28;20407;-63
2023/06/12 03:09:05;;;;;;;6.85;5.80;;;;;;;;;;5062681;28;20782;-63
2023/06/12 03:11:33;;;;;;;8.75;6.25;;;;;;;;;;5063397;28;20466;-63
2023/06/12 03:14:00;;;;;;;6.70;5.50;;;;;;;;;;5061796;28;20416;-63
2023/06/12 03:16:30;;;;;;;7.40;5.82;;;;;;;;;;5061262;28;20509;-64
2023/06/12 03:18:57;;;;;;;8.93;5.97;;;;;;;;;;5061822;28;20482;-64
2023/06/12 03:21:24;;;;;;;6.88;6.18;;;;;;;;;;5059827;28;20417;-64
2023/06/12 03:23:51;;;;;;;7.03;5.90;;;;;;;;;;5059406;28;20914;-64
2023/06/12 03:26:18;;;;;;;6.95;5.90;;;;;;;;;;5061947;28;20419;-63
2023/06/12 03:28:46;;;;;;;10.48;6.28;;;;;;;;;;5060389;28;20417;-65
2023/06/12 03:31:13;;;;;;;8.67;6.20;;;;;;;;;;5062176;28;20479;-64
2023/06/12 03:33:41;;;;;;;11.05;6.38;;;;;;;;;;5060866;28;20411;-64
2023/06/12 03:36:08;;;;;;;8.57;6.68;;;;;;;;;;5064076;28;20481;-63
2023/06/12 03:38:35;;;;;;;9.85;6.88;;;;;;;;;;5068065;28;20907;-63
2023/06/12 03:41:02;;;;;;;10.18;6.65;;;;;;;;;;5064975;28;20407;-63
2023/06/12 03:43:29;;;;;;;9.88;7.15;;;;;;;;;;5063028;28;20421;-64
2023/06/12 03:45:56;;;;;;;10.05;7.10;;;;;;;;;;5065508;28;20473;-64
2023/06/12 03:48:23;;;;;;;8.40;6.55;;;;;;;;;;5066525;28;20807;-64
2023/06/12 03:50:52;;;;;;;9.20;7.03;;;;;;;;;;5063305;28;20416;-64
2023/06/12 03:53:19;;;;;;;8.70;6.97;;;;;;;;;;5063210;28;20474;-63
2023/06/12 03:55:46;;;;;;;10.43;7.67;;;;;;;;;;5065252;28;20864;-63
2023/06/12 03:58:16;;;;;;;9.82;7.70;;;;;;;;;;5064014;28;21228;-63
2023/06/12 04:00:45;;;;;;;9.45;7.22;;;;;;;;;;5067742;28;20911;-63
2023/06/12 04:03:14;;;;;;;8.93;7.10;;;;;;;;;;5063935;28;20439;-63
2023/06/12 04:05:41;;;;;;;11.85;6.90;;;;;;;;;;5062238;28;20421;-63
2023/06/12 04:08:09;;;;;;;8.73;6.70;;;;;;;;;;5070351;28;20411;-63
2023/06/12 04:10:36;;;;;;;10.27;7.05;;;;;;;;;;5062346;28;20422;-63
2023/06/12 04:13:03;;;;;;;9.27;6.65;;;;;;;;;;5065601;28;21232;-63
2023/06/12 04:15:30;;;;;;;8.93;6.75;;;;;;;;;;5065828;28;20828;-63
2023/06/12 04:17:58;;;;;;;9.35;6.80;;;;;;;;;;5062199;28;20429;-63
2023/06/12 04:20:26;;;;;;;10.57;6.93;;;;;;;;;;5064828;28;20423;-64
2023/06/12 04:22:56;;;;;;;8.68;6.10;;;;;;;;;;5062259;28;20416;-59
2023/06/12 04:25:25;;;;;;;8.77;6.63;;;;;;;;;;5067491;28;20427;-60
2023/06/12 04:27:52;;;;;;;8.35;6.40;;;;;;;;;;5061306;28;20500;-60
2023/06/12 04:30:21;;;;;;;8.63;6.78;;;;;;;;;;5063394;28;20892;-60
2023/06/12 04:32:48;;;;;;;7.55;5.85;;;;;;;;;;5057304;28;20413;-59
2023/06/12 04:35:16;;;;;;;8.73;6.53;;;;;;;;;;5069882;28;20412;-59
2023/06/12 04:37:43;;;;;;;7.78;6.43;;;;;;;;;;5066372;28;20793;-59
2023/06/12 04:40:11;;;;;;;11.00;7.18;;;;;;;;;;5071951;28;20465;-60
2023/06/12 04:42:41;;;;;;;10.23;7.00;;;;;;;;;;5063580;28;20422;-60
2023/06/12 04:45:09;;;;;;;10.32;7.30;;;;;;;;;;5061828;28;20417;-60
2023/06/12 04:47:37;;;;;;;10.05;7.07;;;;;;;;;;5066053;28;20411;-60
2023/06/12 04:50:04;;;;;;;9.90;6.80;;;;;;;;;;5061093;28;20435;-61
2023/06/12 04:52:34;;;;;;;10.40;6.82;;;;;;;;;;5068682;28;20416;-60
2023/06/12 04:55:01;;;;;;;8.75;6.88;;;;;;;;;;5071323;28;21655;-60
2023/06/12 04:57:29;;;;;;;9.05;6.38;;;;;;;;;;5067617;28;20424;-60
2023/06/12 04:59:58;;;;;;;16.30;7.32;;;;;;;;;;5067135;28;20487;-60
2023/06/12 05:02:25;;;;;;;10.32;7.40;;;;;;;;;;5063961;28;20554;-58
2023/06/12 05:04:52;;;;;;;10.45;7.07;;;;;;;;;;5071131;28;20421;-59
2023/06/12 05:07:21;;;;;;;9.10;6.47;;;;;;;;;;5069860;28;20416;-60
2023/06/12 05:09:48;;;;;;;11.60;7.07;;;;;;;;;;5063008;28;20855;-60
2023/06/12 05:12:15;;;;;;;14.98;7.25;;;;;;;;;;5063610;28;20492;-61
2023/06/12 05:14:43;;;;;;;12.52;6.75;;;;;;;;;;5063248;28;20473;-60
2023/06/12 05:17:12;;;;;;;9.57;6.57;;;;;;;;;;5063732;28;20419;-61
2023/06/12 05:19:39;;;;;;;10.90;6.95;;;;;;;;;;5063542;28;20422;-62
2023/06/12 05:22:06;;;;;;;10.07;6.78;;;;;;;;;;5066249;28;20420;-61
2023/06/12 05:24:33;;;;;;;8.27;6.50;;;;;;;;;;5060813;28;21082;-61
2023/06/12 05:27:00;;;;;;;9.40;6.90;;;;;;;;;;5062184;28;20411;-60
2023/06/12 05:29:27;;;;;;;10.13;7.13;;;;;;;;;;5063556;28;20421;-62
2023/06/12 05:31:54;;;;;;;10.02;6.50;;;;;;;;;;5062663;28;20830;-62
2023/06/12 05:34:23;;;;;;;9.75;6.95;;;;;;;;;;5062431;28;20461;-63
2023/06/12 05:36:50;;;;;;;7.78;6.88;;;;;;;;;;5067554;28;20458;-62
2023/06/12 05:39:17;;;;;;;8.95;6.60;;;;;;;;;;5066135;28;20425;-63
2023/06/12 05:41:44;;;;;;;9.50;6.43;;;;;;;;;;5063367;28;20932;-60
2023/06/12 05:44:11;;;;;;;9.13;5.93;;;;;;;;;;5065116;28;20419;-62
2023/06/12 05:46:39;;;;;;;10.63;6.30;;;;;;;;;;5061720;28;20777;-59
2023/06/12 05:49:06;;;;;;;10.77;6.25;;;;;;;;;;5068782;28;20407;-62
2023/06/12 05:51:35;;;;;;;9.52;6.97;;;;;;;;;;5061721;28;20417;-62
2023/06/12 05:54:02;;;;;;;9.60;6.80;;;;;;;;;;5061864;28;20423;-61
2023/06/12 05:56:29;;;;;;;9.75;6.47;;;;;;;;;;5064609;28;20936;-61
2023/06/12 05:58:56;;;;;;;10.15;7.18;;;;;;;;;;5060944;28;20429;-62
2023/06/12 06:01:25;;;;;;;10.63;6.40;;;;;;;;;;5068175;28;20484;-62
2023/06/12 06:03:52;;;;;;;12.48;6.75;;;;;;;;;;5063601;28;20806;-61
2023/06/12 06:06:19;;;;;;;12.77;7.10;;;;;;;;;;5064804;28;20469;-62
2023/06/12 06:08:48;;;;;;;10.82;6.93;;;;;;;;;;5065929;28;20463;-61
2023/06/12 06:11:15;;;;;;;9.73;6.75;;;;;;;;;;5062101;28;20830;-60
2023/06/12 06:13:43;;;;;;;12.57;7.28;;;;;;;;;;5064368;28;20420;-61
2023/06/12 06:16:10;;;;;;;13.20;6.95;;;;;;;;;;5063180;28;20415;-60
2023/06/12 06:18:37;;;;;;;11.02;7.00;;;;;;;;;;5064925;28;20485;-62
2023/06/12 06:21:05;;;;;;;15.50;7.07;;;;;;;;;;5061789;28;20883;-61
2023/06/12 06:23:32;;;;;;;12.20;6.90;;;;;;;;;;5059909;28;20412;-63
2023/06/12 06:26:00;;;;;;;11.68;6.65;;;;;;;;;;5063446;28;20423;-62
2023/06/12 06:28:27;;;;;;;11.75;6.82;;;;;;;;;;5062029;28;20411;-64
2023/06/12 06:30:54;;;;;;;11.23;6.93;;;;;;;;;;5062820;28;20469;-62
2023/06/12 06:33:22;;;;;;;9.75;6.80;;;;;;;;;;5066451;28;20431;-64
2023/06/12 06:35:49;;;;;;;12.03;6.87;;;;;;;;;;5066763;28;20419;-62
2023/06/12 06:38:20;;;;;;;11.82;6.15;;;;;;;;;;5066095;28;20815;-61
2023/06/12 06:40:47;;;;;;;11.30;6.27;;;;;;;;;;5060015;28;20409;-62
2023/06/12 06:43:16;;;;;;;7.43;6.20;;;;;;;;;;5059300;28;20940;-61
2023/06/12 06:45:43;;;;;;;11.50;6.40;;;;;;;;;;5057617;28;20434;-60
2023/06/12 06:48:10;;;;;;;13.48;6.38;;;;;;;;;;5062959;28;20415;-61
2023/06/12 06:50:37;;;;;;;9.80;6.07;;;;;;;;;;5065098;28;20461;-60
2023/06/12 06:53:04;;;;;;;8.83;6.43;;;;;;;;;;5064136;28;20607;-60
2023/06/12 06:55:31;;;;;;;9.32;6.00;;;;;;;;;;5064890;28;20415;-60
2023/06/12 06:57:58;;;;;;;10.43;6.35;;;;;;;;;;5066067;28;20497;-60
2023/06/12 07:00:27;;;;;;;12.18;6.72;;;;;;;;;;5059602;28;20479;-60
2023/06/12 07:02:54;;;;;;;14.48;7.30;;;;;;;;;;5062733;28;21002;-63
2023/06/12 07:05:22;;;;;;;23.15;9.23;;;;;;;;;;5065698;28;20419;-62
2023/06/12 07:07:49;;;;;;;9.48;6.38;;;;;;;;;;5061554;28;20421;-62
2023/06/12 07:10:16;;;;;;;10.13;5.95;;;;;;;;;;5058545;28;20964;-61
2023/06/12 07:12:43;;;;;;;8.33;6.10;;;;;;;;;;5059633;28;20479;-63
2023/06/12 07:15:10;;;;;;;11.73;5.90;;;;;;;;;;5049947;28;20417;-62
2023/06/12 07:17:39;;;;;;;10.55;6.50;;;;;;;;;;5049861;28;20421;-63
2023/06/12 07:20:08;;;;;;;10.30;6.05;;;;;;;;;;5063344;28;20420;-61
2023/06/12 07:22:35;;;;;;;8.00;6.10;;;;;;;;;;5066241;28;20431;-62
2023/06/12 07:25:01;;;;;;;8.97;5.90;;;;;;;;;;5058829;28;20897;-63
2023/06/12 07:27:28;;;;;;;8.50;5.93;;;;;;;;;;5062938;28;20413;-61
2023/06/12 07:29:56;;;;;;;9.23;6.13;;;;;;;;;;5064847;28;20411;-61
2023/06/12 07:32:23;;;;;;;6.25;5.38;;;;;;;;;;5062336;28;20415;-61
2023/06/12 07:34:54;;;;;;;7.03;6.00;;;;;;;;;;5061227;28;20788;-61
2023/06/12 07:37:21;;;;;;;9.75;5.57;;;;;;;;;;5062177;28;20473;-60
2023/06/12 07:39:48;;;;;;;8.73;5.97;;;;;;;;;;5061081;28;20411;-60
2023/06/12 07:42:15;;;;;;;8.83;5.80;;;;;;;;;;5060945;28;20480;-60
2023/06/12 07:44:42;;;;;;;7.70;6.15;;;;;;;;;;5059703;28;20417;-66
2023/06/12 07:47:09;;;;;;;14.48;7.43;;;;;;;;;;5062325;28;20945;-62
2023/06/12 07:49:36;;;;;;;12.70;6.65;;;;;;;;;;5053437;28;20416;-63
2023/06/12 07:52:05;;;;;;;18.67;7.63;;;;;;;;;;5062757;28;20419;-63
2023/06/12 07:54:32;;;;;;;10.68;6.53;;;;;;;;;;5058432;28;20820;-63
2023/06/12 07:56:59;;;;;;;10.07;6.28;;;;;;;;;;5062400;28;20417;-63
2023/06/12 07:59:26;;;;;;;8.18;6.20;;;;;;;;;;5062201;28;20431;-62
2023/06/12 08:01:53;;;;;;;8.57;6.20;;;;;;;;;;5060383;28;20432;-63
2023/06/12 08:04:20;;;;;;;7.82;6.20;;;;;;;;;;5058850;28;20940;-63
2023/06/12 08:06:47;;;;;;;9.35;5.97;;;;;;;;;;5062033;28;20428;-64
2023/06/12 08:09:16;;;;;;;7.60;5.97;;;;;;;;;;5064773;28;20463;-63
2023/06/12 08:11:43;;;;;;;9.23;6.13;;;;;;;;;;5058038;28;20914;-67
2023/06/12 08:14:10;;;;;;;8.40;5.90;;;;;;;;;;5059604;28;20411;-65
2023/06/12 08:16:37;;;;;;;6.85;5.88;;;;;;;;;;5061136;28;20417;-62
2023/06/12 08:19:04;;;;;;;8.07;6.07;;;;;;;;;;5063621;28;20421;-64
2023/06/12 08:21:31;;;;;;;7.22;6.45;;;;;;;;;;5061562;28;20421;-59
2023/06/12 08:23:58;;;;;;;7.00;6.10;;;;;;;;;;5067158;28;20416;-59
2023/06/12 08:26:26;;;;;;;9.80;6.47;;;;;;;;;;5067864;28;20530;-60
2023/06/12 08:28:53;;;;;;;7.68;6.40;;;;;;;;;;5066448;28;20443;-62
2023/06/12 08:31:21;;;;;;;7.28;6.35;;;;;;;;;;5061984;28;20886;-62
2023/06/12 08:33:48;;;;;;;7.43;5.97;;;;;;;;;;5061873;28;20416;-61
2023/06/12 08:36:15;;;;;;;6.85;5.90;;;;;;;;;;5068513;28;20411;-61
2023/06/12 08:38:41;;;;;;;8.15;6.20;;;;;;;;;;5070377;28;20420;-61
2023/06/12 08:41:08;;;;;;;9.70;6.22;;;;;;;;;;5061735;28;20409;-62
2023/06/12 08:43:37;;;;;;;6.47;5.88;;;;;;;;;;5063117;28;20446;-64
2023/06/12 08:46:06;;;;;;;7.73;5.73;;;;;;;;;;5064025;28;20878;-62
2023/06/12 08:48:34;;;;;;;6.95;5.70;;;;;;;;;;5052580;28;21020;-64
2023/06/12 08:51:02;;;;;;;9.27;6.13;;;;;;;;;;5061775;28;20415;-63
2023/06/12 08:53:30;;;;;;;7.55;6.10;;;;;;;;;;5065664;28;20427;-64
2023/06/12 08:55:57;;;;;;;11.43;6.13;;;;;;;;;;5065555;28;20421;-64
2023/06/12 08:58:24;;;;;;;6.97;5.80;;;;;;;;;;5068187;28;20434;-63
2023/06/12 09:00:52;;;;;;;7.40;6.20;;;;;;;;;;5062134;28;20824;-64
2023/06/12 09:03:20;;;;;;;6.15;5.50;;;;;;;;;;5061775;28;20881;-63
2023/06/12 09:05:48;;;;;;;7.70;6.07;;;;;;;;;;5060917;28;20801;-63
2023/06/12 09:08:15;;;;;;;7.30;6.18;;;;;;;;;;5068268;28;20454;-61
2023/06/12 09:10:42;;;;;;;9.38;5.60;;;;;;;;;;5067849;28;20424;-62
2023/06/12 09:13:10;;;;;;;6.80;5.78;;;;;;;;;;5068428;28;20416;-64
2023/06/12 09:15:38;;;;;;;8.55;6.10;;;;;;;;;;5065163;28;20415;-65
2023/06/12 09:18:10;;;;;;;7.07;6.03;;;;;;;;;;5068567;28;20434;-65
2023/06/12 09:20:38;;;;;;;7.30;6.00;;;;;;;;;;5061134;28;20908;-65
2023/06/12 09:23:05;;;;;;;7.50;6.35;;;;;;;;;;5061762;28;20415;-62
2023/06/12 09:25:35;;;;;;;7.80;6.30;;;;;;;;;;5063449;28;20745;-62
2023/06/12 09:28:04;;;;;;;6.85;6.00;;;;;;;;;;5061813;28;20405;-62
2023/06/12 09:30:31;;;;;;;7.45;6.22;;;;;;;;;;5064076;28;20427;-64
2023/06/12 09:33:00;;;;;;;10.30;6.50;;;;;;;;;;5060493;28;20436;-65
2023/06/12 09:35:29;;;;;;;7.85;6.30;;;;;;;;;;5062848;28;20454;-62
2023/06/12 09:37:57;;;;;;;11.05;7.05;;;;;;;;;;5065218;28;20413;-64
2023/06/12 09:40:25;;;;;;;8.82;6.15;;;;;;;;;;5065743;28;20954;-63
2023/06/12 09:42:52;;;;;;;7.73;6.30;;;;;;;;;;5065218;28;20416;-63
2023/06/12 09:45:20;;;;;;;7.80;6.50;;;;;;;;;;5070299;28;20821;-64
2023/06/12 09:47:48;;;;;;;7.60;6.05;;;;;;;;;;5064623;28;20423;-64
2023/06/12 09:50:15;;;;;;;8.80;6.60;;;;;;;;;;5065336;28;20421;-64
2023/06/12 09:52:45;;;;;;;8.77;6.22;;;;;;;;;;5064429;28;20421;-64
2023/06/12 09:55:13;;;;;;;9.00;6.45;;;;;;;;;;5062919;28;20422;-66
2023/06/12 09:57:41;;;;;;;7.30;6.03;;;;;;;;;;5061623;28;20417;-64
2023/06/12 10:00:11;;;;;;;9.35;6.35;;;;;;;;;;5061381;28;20915;-63
2023/06/12 10:02:41;;;;;;;9.30;6.20;;;;;;;;;;5060459;28;20421;-63
2023/06/12 10:05:11;;;;;;;7.20;6.50;;;;;;;;;;5059502;28;20418;-63
2023/06/12 10:07:41;;;;;;;8.20;6.45;;;;;;;;;;5062982;28;20415;-63
2023/06/12 10:10:11;;;;;;;8.05;6.50;;;;;;;;;;5065764;28;20884;-63
2023/06/12 10:12:39;;;;;;;7.50;6.63;;;;;;;;;;5060796;28;20425;-65
2023/06/12 10:15:07;;;;;;;8.98;6.07;;;;;;;;;;5060544;28;20902;-63
2023/06/12 10:17:35;;;;;;;8.02;6.10;;;;;;;;;;5064646;28;20421;-62
2023/06/12 10:20:03;;;;;;;6.85;6.15;;;;;;;;;;5064956;28;20431;-65
2023/06/12 10:22:30;;;;;;;7.43;5.93;;;;;;;;;;5060944;28;20427;-62
2023/06/12 10:24:57;;;;;;;7.50;5.93;;;;;;;;;;5059087;28;21107;-63
2023/06/12 10:27:26;;;;;;;7.38;6.18;;;;;;;;;;5061551;28;20411;-64
2023/06/12 10:29:57;;;;;;;6.43;5.72;;;;;;;;;;5061797;28;20419;-63
2023/06/12 10:32:24;;;;;;;7.53;5.70;;;;;;;;;;5060435;28;20814;-63
2023/06/12 10:34:54;;;;;;;8.18;6.20;;;;;;;;;;5070214;28;20973;-63
2023/06/12 10:37:22;;;;;;;8.35;6.22;;;;;;;;;;5064821;28;20412;-64
2023/06/12 10:39:49;;;;;;;7.68;6.30;;;;;;;;;;5061869;28;20483;-62
2023/06/12 10:42:18;;;;;;;7.90;6.00;;;;;;;;;;5062331;28;20465;-62
2023/06/12 10:44:49;;;;;;;7.63;5.90;;;;;;;;;;5065243;28;20437;-65
2023/06/12 10:47:20;;;;;;;7.78;6.30;;;;;;;;;;5058266;28;20447;-62
2023/06/12 10:49:57;;;;;;;6.65;5.68;;;;;;;;;;5061105;28;20503;-62
2023/06/12 10:52:24;;;;;;;6.53;5.93;;;;;;;;;;5060477;28;20409;-62
2023/06/12 10:55:14;;;;;;;7.75;5.93;;;;;;;;;;5063194;28;20423;-65
2023/06/12 10:57:47;;;;;;;7.85;5.95;;;;;;;;;;5062490;28;20408;-63
2023/06/12 11:00:17;;;;;;;6.85;6.22;;;;;;;;;;5049773;28;20909;-62
2023/06/12 11:02:45;;;;;;;7.90;6.13;;;;;;;;;;5050229;28;20445;-62
2023/06/12 11:05:12;;;;;;;6.80;5.97;;;;;;;;;;5061994;28;20411;-63
2023/06/12 11:07:40;;;;;;;9.75;5.68;;;;;;;;;;5064556;28;20415;-62
2023/06/12 11:10:10;;;;;;;6.80;5.80;;;;;;;;;;5049666;28;20417;-62
2023/06/12 11:12:38;;;;;;;5.97;5.38;;;;;;;;;;5058585;28;20470;-62
2023/06/12 11:15:05;;;;;;;6.38;5.63;;;;;;;;;;5061332;28;20813;-63
2023/06/12 11:17:33;;;;;;;6.32;5.50;;;;;;;;;;5070737;28;20445;-58
2023/06/12 11:20:01;;;;;;;6.93;5.75;;;;;;;;;;5060375;28;20433;-62
2023/06/12 11:22:28;;;;;;;7.78;5.70;;;;;;;;;;5064882;28;20419;-62
2023/06/12 11:25:00;;;;;;;16.15;6.78;;;;;;;;;;5061253;28;20478;-63
2023/06/12 11:27:28;;;;;;;18.27;8.05;;;;;;;;;;5058492;28;20409;-63
2023/06/12 11:29:55;;;;;;;10.55;6.55;;;;;;;;;;5060633;28;20457;-63
2023/06/12 11:32:22;;;;;;;6.93;5.95;;;;;;;;;;5060860;28;20420;-63
2023/06/12 11:34:51;;;;;;;8.30;6.30;;;;;;;;;;5058721;28;20417;-62
2023/06/12 11:37:19;;;;;;;7.40;6.20;;;;;;;;;;5068029;28;20876;-62
2023/06/12 11:39:46;;;;;;;7.63;6.15;;;;;;;;;;5059362;28;20425;-62
2023/06/12 11:42:13;;;;;;;6.88;6.18;;;;;;;;;;5062147;28;20419;-62
2023/06/12 11:44:40;;;;;;;7.20;6.40;;;;;;;;;;5058194;28;20467;-63
2023/06/12 11:47:07;;;;;;;6.63;5.87;;;;;;;;;;5060739;28;20408;-64
2023/06/12 11:49:36;;;;;;;6.53;5.75;;;;;;;;;;5060174;28;20935;-63
2023/06/12 11:52:06;;;;;;;6.85;6.20;;;;;;;;;;5066070;28;20463;-64
2023/06/12 11:54:53;;;;;;;6.75;5.90;;;;;;;;;;5058490;28;21069;-64
2023/06/12 11:57:20;;;;;;;6.25;5.70;;;;;;;;;;5067832;28;20411;-65
2023/06/12 11:59:49;;;;;;;6.25;5.65;;;;;;;;;;5063267;28;20475;-65
2023/06/12 12:02:16;;;;;;;8.98;6.20;;;;;;;;;;5066717;28;20416;-62
2023/06/12 12:04:43;;;;;;;7.85;6.57;;;;;;;;;;5063639;28;20502;-62
2023/06/12 12:07:12;;;;;;;7.22;6.35;;;;;;;;;;5064875;28;20419;-63
2023/06/12 12:09:39;;;;;;;7.40;6.22;;;;;;;;;;5071346;28;20447;-64
2023/06/12 12:12:10;;;;;;;8.48;6.35;;;;;;;;;;5067503;28;20439;-63
2023/06/12 12:14:48;;;;;;;7.10;6.40;;;;;;;;;;5064341;28;20424;-63
2023/06/12 12:17:16;;;;;;;7.50;6.30;;;;;;;;;;5065866;28;20888;-63
2023/06/12 12:19:43;;;;;;;7.80;6.35;;;;;;;;;;5063876;28;20892;-63
2023/06/12 12:22:11;;;;;;;9.50;6.75;;;;;;;;;;5069212;28;20420;-62
2023/06/12 12:24:38;;;;;;;8.23;6.50;;;;;;;;;;5063182;28;20482;-62
2023/06/12 12:27:12;;;;;;;7.47;6.67;;;;;;;;;;5063069;28;20416;-63
2023/06/12 12:29:39;;;;;;;12.27;7.03;;;;;;;;;;5061817;28;20445;-64
2023/06/12 12:32:07;;;;;;;7.73;6.93;;;;;;;;;;5064038;28;20425;-63
2023/06/12 12:34:34;;;;;;;9.05;6.95;;;;;;;;;;5064624;28;20417;-62
2023/06/12 12:37:03;;;;;;;8.30;7.00;;;;;;;;;;5065383;28;20793;-63
2023/06/12 12:39:31;;;;;;;9.68;6.90;;;;;;;;;;5067140;28;20919;-63
2023/06/12 12:41:58;;;;;;;8.23;6.60;;;;;;;;;;5062092;28;20506;-63
2023/06/12 12:44:25;;;;;;;8.50;6.90;;;;;;;;;;5061475;28;20412;-63
2023/06/12 12:46:52;;;;;;;9.03;6.80;;;;;;;;;;5062243;28;20466;-62
2023/06/12 12:49:19;;;;;;;9.93;6.80;;;;;;;;;;5063374;28;20409;-62
2023/06/12 12:51:46;;;;;;;8.00;7.20;;;;;;;;;;5065408;28;20885;-62
2023/06/12 12:54:13;;;;;;;8.27;7.27;;;;;;;;;;5062565;28;20408;-63
2023/06/12 12:56:42;;;;;;;8.63;6.90;;;;;;;;;;5070265;28;20461;-63
2023/06/12 12:59:09;;;;;;;8.27;7.25;;;;;;;;;;5061943;28;20899;-64
2023/06/12 13:01:36;;;;;;;8.95;7.40;;;;;;;;;;5061966;28;20416;-63
2023/06/12 13:04:03;;;;;;;10.02;7.28;;;;;;;;;;5063307;28;20415;-64
2023/06/12 13:06:30;;;;;;;8.55;7.28;;;;;;;;;;5064925;28;20892;-63
2023/06/12 13:08:57;;;;;;;8.95;7.18;;;;;;;;;;5068741;28;20430;-64
2023/06/12 13:11:24;;;;;;;9.32;7.10;;;;;;;;;;5071154;28;20908;-64
2023/06/12 13:13:52;;;;;;;9.70;7.22;;;;;;;;;;5070135;28;20465;-64
2023/06/12 13:16:20;;;;;;;9.73;7.30;;;;;;;;;;5069470;28;20469;-64
2023/06/12 13:18:47;;;;;;;8.77;6.95;;;;;;;;;;5071436;28;20473;-65
2023/06/12 13:21:14;;;;;;;8.18;6.80;;;;;;;;;;5068765;28;20435;-65
2023/06/12 13:23:41;;;;;;;7.80;6.90;;;;;;;;;;5067550;28;20822;-65
2023/06/12 13:26:08;;;;;;;10.35;7.65;;;;;;;;;;5069625;28;20449;-64
2023/06/12 13:28:35;;;;;;;9.23;7.32;;;;;;;;;;5068544;28;20424;-64
2023/06/12 13:31:03;;;;;;;9.50;7.30;;;;;;;;;;5072155;28;20416;-63
2023/06/12 13:33:30;;;;;;;8.77;7.07;;;;;;;;;;5067364;28;20466;-63
2023/06/12 13:35:57;;;;;;;10.27;6.95;;;;;;;;;;5062867;28;20441;-63
2023/06/12 13:38:25;;;;;;;8.27;7.10;;;;;;;;;;5068123;28;20419;-62
2023/06/12 13:40:52;;;;;;;12.88;7.10;;;;;;;;;;5060776;28;20435;-63
2023/06/12 13:43:19;;;;;;;8.00;7.20;;;;;;;;;;5060772;28;20421;-62
2023/06/12 13:45:47;;;;;;;8.68;7.20;;;;;;;;;;5062979;28;20404;-63
2023/06/12 13:48:16;;;;;;;9.32;7.03;;;;;;;;;;5061949;28;20894;-63
2023/06/12 13:50:43;;;;;;;8.57;7.13;;;;;;;;;;5062530;28;20567;-64
2023/06/12 13:53:10;;;;;;;14.40;7.45;;;;;;;;;;5061212;28;20433;-63
2023/06/12 13:55:37;;;;;;;11.45;7.43;;;;;;;;;;5062612;28;20420;-63
2023/06/12 13:58:08;;;;;;;11.65;6.80;;;;;;;;;;5060464;28;20425;-64
2023/06/12 14:00:35;;;;;;;8.93;7.23;;;;;;;;;;5059875;28;20467;-63
2023/06/12 14:03:02;;;;;;;8.80;7.13;;;;;;;;;;5051108;28;20963;-64
2023/06/12 14:05:30;;;;;;;7.90;6.50;;;;;;;;;;5061472;28;20465;-64
2023/06/12 14:07:57;;;;;;;8.45;6.80;;;;;;;;;;5067157;28;20535;-65
2023/06/12 14:10:24;;;;;;;7.70;6.72;;;;;;;;;;5057448;28;20417;-65
2023/06/12 14:12:53;;;;;;;8.75;6.60;;;;;;;;;;5068326;28;20469;-63
2023/06/12 14:15:20;;;;;;;9.52;6.63;;;;;;;;;;5064417;28;20504;-64
2023/06/12 14:17:47;;;;;;;8.32;6.63;;;;;;;;;;5059558;28;20420;-64
2023/06/12 14:20:15;;;;;;;7.80;6.50;;;;;;;;;;5058753;28;20841;-65
2023/06/12 14:22:44;;;;;;;8.50;6.80;;;;;;;;;;5058182;28;20880;-62
2023/06/12 14:25:12;;;;;;;7.60;6.55;;;;;;;;;;5067968;28;20434;-64
2023/06/12 14:27:39;;;;;;;7.97;6.88;;;;;;;;;;5064974;28;20953;-64
2023/06/12 14:30:07;;;;;;;9.05;6.50;;;;;;;;;;5060920;28;20409;-64
2023/06/12 14:32:34;;;;;;;8.13;7.00;;;;;;;;;;5060471;28;20502;-63
2023/06/12 14:35:01;;;;;;;9.80;6.70;;;;;;;;;;5057733;28;20496;-64
2023/06/12 14:37:28;;;;;;;10.90;6.68;;;;;;;;;;5065505;28;20519;-63
2023/06/12 14:39:56;;;;;;;11.00;6.65;;;;;;;;;;5064806;28;20424;-64
2023/06/12 14:42:23;;;;;;;9.93;6.75;;;;;;;;;;5063271;28;20440;-64
2023/06/12 14:44:50;;;;;;;10.13;6.50;;;;;;;;;;5060629;28;20421;-65